Time;durP1;ratioP1;P1;durP2;ratioP2;P2;SDS_P1;SDS_P2;PMS_P1;PMS_P2;Temp;Humidity;BMP_temperature;BMP_pressure;BME280_temperature;BME280_humidity;BME280_pressure;Samples;Min_cycle;Max_cycle;Signal;HPM_P1;HPM_P2
2022/02/17 00:00:56;;;;;;;2.83;0.77;;;14.20;88.80;;;;;;5102667;28;20465;-79
2022/02/17 00:03:21;;;;;;;1.25;0.77;;;14.20;88.80;;;;;;5117768;27;20072;-79
2022/02/17 00:05:47;;;;;;;1.08;0.70;;;14.20;88.90;;;;;;5128712;27;20027;-79
2022/02/17 00:08:13;;;;;;;1.70;0.80;;;14.20;88.50;;;;;;5116577;28;20088;-79
2022/02/17 00:10:39;;;;;;;2.17;0.70;;;14.20;88.70;;;;;;5116632;28;20015;-80
2022/02/17 00:13:04;;;;;;;2.17;0.80;;;14.20;89.00;;;;;;5101838;28;20186;-80
2022/02/17 00:15:32;;;;;;;3.83;1.02;;;14.10;89.10;;;;;;5096313;28;20020;-79
2022/02/17 00:17:58;;;;;;;1.08;0.70;;;14.10;88.80;;;;;;5116461;28;20497;-79
2022/02/17 00:20:25;;;;;;;1.85;0.70;;;14.10;89.00;;;;;;5116223;28;20393;-79
2022/02/17 00:22:51;;;;;;;2.42;0.85;;;14.10;88.90;;;;;;5116245;28;20031;-79
2022/02/17 00:25:17;;;;;;;1.92;1.10;;;14.10;89.30;;;;;;5094385;28;20012;-79
2022/02/17 00:27:43;;;;;;;3.67;0.80;;;14.20;89.20;;;;;;5094601;28;20036;-80
2022/02/17 00:30:11;;;;;;;3.00;1.35;;;14.20;88.90;;;;;;5077423;28;20063;-80
2022/02/17 00:32:37;;;;;;;1.88;0.80;;;14.20;89.10;;;;;;5086489;28;20036;-79
2022/02/17 00:35:05;;;;;;;1.48;0.70;;;14.20;88.90;;;;;;5095767;28;20058;-79
2022/02/17 00:37:30;;;;;;;1.60;0.73;;;14.30;89.40;;;;;;5095634;28;20166;-79
2022/02/17 00:39:56;;;;;;;2.25;0.90;;;14.30;89.10;;;;;;5077259;28;20107;-78
2022/02/17 00:42:23;;;;;;;3.75;0.90;;;14.20;89.20;;;;;;5095792;28;20057;-79
2022/02/17 00:44:50;;;;;;;2.38;0.73;;;14.30;89.30;;;;;;5095667;28;20020;-79
2022/02/17 00:47:19;;;;;;;2.67;1.40;;;14.30;89.20;;;;;;5095608;28;20020;-79
2022/02/17 00:49:45;;;;;;;1.67;0.93;;;14.30;88.80;;;;;;5095602;28;20023;-80
2022/02/17 00:52:11;;;;;;;3.15;0.70;;;14.30;88.60;;;;;;5095584;28;20035;-80
2022/02/17 00:54:37;;;;;;;2.05;1.20;;;14.20;88.80;;;;;;5095573;28;20135;-79
2022/02/17 00:57:03;;;;;;;1.80;0.80;;;14.20;89.00;;;;;;5077074;28;20052;-79
2022/02/17 00:59:28;;;;;;;1.90;1.17;;;14.20;88.80;;;;;;5095303;28;20036;-79
2022/02/17 01:01:55;;;;;;;2.70;0.57;;;14.20;88.50;;;;;;5087396;28;20554;-80
2022/02/17 01:04:21;;;;;;;1.30;0.65;;;14.20;88.80;;;;;;5121487;28;20029;-80
2022/02/17 01:06:47;;;;;;;2.83;0.90;;;14.20;88.60;;;;;;5097704;28;20031;-79
2022/02/17 01:09:13;;;;;;;2.42;0.68;;;14.20;88.50;;;;;;5115688;28;20620;-79
2022/02/17 01:11:40;;;;;;;1.77;0.82;;;14.20;88.40;;;;;;5115870;28;20028;-80
2022/02/17 01:14:06;;;;;;;2.33;0.82;;;14.30;88.50;;;;;;5105395;28;20025;-79
2022/02/17 01:16:33;;;;;;;2.00;0.60;;;14.20;88.40;;;;;;5095306;28;20032;-79
2022/02/17 01:18:59;;;;;;;2.45;0.60;;;14.20;88.20;;;;;;5095099;28;20055;-78
2022/02/17 01:21:25;;;;;;;5.60;1.00;;;14.30;88.10;;;;;;5095210;28;20109;-79
2022/02/17 01:23:50;;;;;;;3.80;0.82;;;14.30;88.10;;;;;;5095180;28;20016;-79
2022/02/17 01:26:16;;;;;;;5.70;1.33;;;14.20;87.90;;;;;;5095323;28;20032;-79
2022/02/17 01:28:42;;;;;;;4.65;1.17;;;14.10;87.80;;;;;;5095074;28;20059;-79
2022/02/17 01:31:08;;;;;;;3.35;1.30;;;14.00;87.90;;;;;;5095233;28;20032;-80
2022/02/17 01:33:36;;;;;;;6.97;1.33;;;14.00;87.80;;;;;;5095425;28;20107;-79
2022/02/17 01:36:06;;;;;;;7.18;1.58;;;14.00;87.70;;;;;;5095225;28;20375;-80
2022/02/17 01:38:34;;;;;;;12.55;1.98;;;13.90;87.20;;;;;;5094869;28;20125;-79
2022/02/17 01:41:00;;;;;;;16.67;2.67;;;13.80;85.50;;;;;;5096128;28;20024;-79
2022/02/17 01:43:26;;;;;;;18.77;2.47;;;13.70;85.40;;;;;;5080792;28;20079;-79
2022/02/17 01:45:51;;;;;;;16.05;3.08;;;13.80;85.00;;;;;;5098961;28;20036;-79
2022/02/17 01:48:17;;;;;;;14.00;2.95;;;13.70;84.50;;;;;;5106507;28;20055;-79
2022/02/17 01:50:43;;;;;;;15.95;2.75;;;13.60;84.10;;;;;;5119319;28;20023;-79
2022/02/17 01:53:09;;;;;;;16.02;2.67;;;13.50;84.10;;;;;;5088074;28;20034;-79
2022/02/17 01:55:42;;;;;;;15.98;3.20;;;13.40;83.50;;;;;;5099048;28;20031;-79
2022/02/17 01:58:08;;;;;;;17.00;3.08;;;13.30;83.40;;;;;;5085286;28;20079;-80
2022/02/17 02:00:34;;;;;;;18.17;3.15;;;13.40;83.50;;;;;;5119098;28;20031;-79
2022/02/17 02:03:00;;;;;;;20.08;3.10;;;13.40;83.80;;;;;;5119196;28;20455;-79
2022/02/17 02:05:25;;;;;;;15.57;3.53;;;13.40;83.60;;;;;;5125955;27;20059;-79
2022/02/17 02:07:51;;;;;;;17.33;3.25;;;13.40;83.10;;;;;;5098656;28;20032;-79
2022/02/17 02:10:17;;;;;;;24.13;4.78;;;13.40;83.40;;;;;;5103613;28;20023;-79
2022/02/17 02:12:43;;;;;;;13.90;3.88;;;13.30;82.80;;;;;;5118965;28;20117;-79
2022/02/17 02:15:09;;;;;;;20.63;3.50;;;13.50;83.00;;;;;;5118862;28;20035;-79
2022/02/17 02:17:35;;;;;;;18.73;3.42;;;13.50;83.10;;;;;;5118887;28;20055;-79
2022/02/17 02:20:03;;;;;;;19.05;3.97;;;13.50;82.30;;;;;;5082131;28;20042;-79
2022/02/17 02:22:31;;;;;;;14.00;3.03;;;13.50;83.30;;;;;;5098146;28;20050;-79
2022/02/17 02:25:00;;;;;;;13.55;2.58;;;13.50;83.10;;;;;;5105697;28;20020;-79
2022/02/17 02:27:29;;;;;;;23.17;3.25;;;13.60;82.90;;;;;;5103998;28;20031;-79
2022/02/17 02:29:56;;;;;;;20.70;3.40;;;13.50;83.00;;;;;;5079994;28;20059;-79
2022/02/17 02:32:22;;;;;;;15.32;2.95;;;13.60;83.00;;;;;;5098118;28;20066;-79
2022/02/17 02:34:47;;;;;;;16.45;2.15;;;13.50;83.10;;;;;;5097839;28;20028;-79
2022/02/17 02:37:13;;;;;;;12.82;2.55;;;13.50;82.80;;;;;;5098264;28;21114;-79
2022/02/17 02:39:39;;;;;;;10.10;3.10;;;13.40;83.00;;;;;;5097879;28;20398;-79
2022/02/17 02:42:06;;;;;;;18.55;2.85;;;13.30;82.30;;;;;;5098052;28;20024;-79
2022/02/17 02:44:33;;;;;;;13.63;2.97;;;13.20;82.40;;;;;;5097968;28;20048;-79
2022/02/17 02:46:58;;;;;;;18.48;3.22;;;13.20;82.60;;;;;;5097773;28;20028;-79
2022/02/17 02:49:24;;;;;;;11.00;2.45;;;13.20;83.00;;;;;;5097801;28;20093;-79
2022/02/17 02:51:50;;;;;;;14.07;2.90;;;13.30;82.60;;;;;;5097324;28;20032;-79
2022/02/17 02:54:16;;;;;;;11.95;2.60;;;13.30;82.40;;;;;;5097512;28;20024;-79
2022/02/17 02:56:42;;;;;;;15.50;2.85;;;13.20;82.30;;;;;;5097808;28;20031;-79
2022/02/17 02:59:08;;;;;;;14.98;2.75;;;13.10;82.40;;;;;;5097232;28;20048;-79
2022/02/17 03:01:34;;;;;;;15.35;2.70;;;13.20;82.80;;;;;;5097523;28;20099;-79
2022/02/17 03:04:00;;;;;;;17.13;3.00;;;13.10;82.20;;;;;;5106531;27;20100;-79
2022/02/17 03:06:29;;;;;;;15.98;3.15;;;13.00;82.40;;;;;;5117762;27;20023;-79
2022/02/17 03:08:55;;;;;;;16.05;2.83;;;13.00;82.60;;;;;;5117702;28;20420;-79
2022/02/17 03:11:21;;;;;;;13.70;2.65;;;12.90;82.40;;;;;;5101806;28;20054;-79
2022/02/17 03:13:47;;;;;;;11.00;2.72;;;12.80;82.70;;;;;;5097453;28;20036;-79
2022/02/17 03:16:13;;;;;;;17.92;2.90;;;12.80;82.70;;;;;;5097285;28;20032;-79
2022/02/17 03:18:40;;;;;;;14.23;3.00;;;12.80;82.70;;;;;;5097235;28;20107;-79
2022/02/17 03:21:06;;;;;;;15.35;2.40;;;12.90;82.90;;;;;;5097054;28;20106;-79
2022/02/17 03:23:32;;;;;;;15.07;3.67;;;12.80;82.70;;;;;;5096926;28;20024;-79
2022/02/17 03:26:00;;;;;;;10.85;2.08;;;12.90;82.60;;;;;;5096949;28;20125;-79
2022/02/17 03:28:25;;;;;;;15.65;2.67;;;12.80;82.40;;;;;;5097331;28;20026;-79
2022/02/17 03:30:51;;;;;;;12.38;2.72;;;12.80;82.80;;;;;;5100031;28;20032;-79
2022/02/17 03:33:17;;;;;;;13.55;2.42;;;12.80;82.70;;;;;;5105238;28;20036;-79
2022/02/17 03:35:42;;;;;;;12.35;2.60;;;12.80;82.70;;;;;;5078597;28;20035;-79
2022/02/17 03:38:08;;;;;;;16.15;2.22;;;12.80;82.50;;;;;;5101356;28;20030;-79
2022/02/17 03:40:34;;;;;;;14.40;2.80;;;12.80;82.80;;;;;;5117176;28;20025;-79
2022/02/17 03:43:00;;;;;;;19.75;2.95;;;12.70;82.90;;;;;;5102029;28;20405;-79
2022/02/17 03:45:26;;;;;;;12.23;2.20;;;12.70;82.70;;;;;;5096722;28;20103;-79
2022/02/17 03:47:51;;;;;;;13.45;2.28;;;12.60;82.70;;;;;;5096689;28;20398;-79
2022/02/17 03:50:17;;;;;;;13.05;2.53;;;12.60;82.40;;;;;;5096584;28;20058;-79
2022/02/17 03:52:43;;;;;;;12.82;3.20;;;12.60;82.20;;;;;;5112150;28;20050;-79
2022/02/17 03:55:10;;;;;;;9.75;2.40;;;12.60;82.50;;;;;;5115136;28;20111;-79
2022/02/17 03:57:35;;;;;;;15.15;2.55;;;12.60;82.20;;;;;;5096346;28;20044;-79
2022/02/17 04:00:02;;;;;;;9.63;2.55;;;12.50;81.40;;;;;;5096475;28;20557;-79
2022/02/17 04:02:28;;;;;;;11.43;2.60;;;12.50;81.70;;;;;;5096593;28;20028;-79
2022/02/17 04:04:54;;;;;;;19.02;3.30;;;12.40;80.70;;;;;;5105842;27;20030;-79
2022/02/17 04:07:19;;;;;;;17.35;3.45;;;12.40;80.90;;;;;;5102066;27;20024;-78
2022/02/17 04:09:45;;;;;;;22.27;3.92;;;12.40;80.00;;;;;;5096446;28;20032;-78
2022/02/17 04:12:12;;;;;;;11.82;1.92;;;12.30;79.80;;;;;;5096153;28;20028;-79
2022/02/17 04:14:37;;;;;;;23.98;4.20;;;12.30;79.60;;;;;;5095963;28;20046;-79
2022/02/17 04:17:03;;;;;;;12.90;2.90;;;12.30;79.80;;;;;;5078151;28;20553;-79
2022/02/17 04:19:30;;;;;;;13.77;2.72;;;12.30;80.00;;;;;;5096134;28;20409;-79
2022/02/17 04:21:56;;;;;;;15.88;3.03;;;12.30;79.60;;;;;;5095738;28;20382;-79
2022/02/17 04:24:22;;;;;;;21.33;2.78;;;12.30;79.70;;;;;;5095879;28;20035;-79
2022/02/17 04:26:48;;;;;;;10.70;2.95;;;12.30;79.70;;;;;;5078516;28;20020;-78
2022/02/17 04:29:13;;;;;;;14.40;3.00;;;12.30;79.60;;;;;;5107316;28;20108;-79
2022/02/17 04:31:39;;;;;;;16.48;2.85;;;12.30;79.60;;;;;;5116427;28;20024;-79
2022/02/17 04:34:05;;;;;;;19.65;3.20;;;12.20;80.30;;;;;;5116103;28;20042;-79
2022/02/17 04:36:30;;;;;;;17.40;3.00;;;12.20;79.60;;;;;;5116162;28;20425;-79
2022/02/17 04:38:56;;;;;;;13.90;3.20;;;12.20;79.30;;;;;;5103113;28;20036;-79
2022/02/17 04:44:06;;;;;;;18.55;3.80;;;12.10;78.60;;;;;;5095891;28;20035;-79
2022/02/17 04:46:32;;;;;;;17.55;4.10;;;12.10;77.60;;;;;;5077524;28;20024;-79
2022/02/17 04:48:58;;;;;;;13.27;3.42;;;12.00;77.10;;;;;;5077313;28;20035;-79
2022/02/17 04:51:24;;;;;;;16.88;3.80;;;12.10;77.00;;;;;;5095637;28;20499;-79
2022/02/17 04:53:50;;;;;;;22.65;3.40;;;12.00;76.30;;;;;;5105541;28;20036;-79
2022/02/17 04:56:15;;;;;;;22.95;3.05;;;12.00;76.00;;;;;;5097516;28;20100;-78
2022/02/17 04:58:41;;;;;;;15.52;3.47;;;11.90;76.50;;;;;;5097509;28;20047;-79
2022/02/17 05:01:07;;;;;;;17.90;3.08;;;11.90;76.80;;;;;;5109815;28;20059;-79
2022/02/17 05:03:33;;;;;;;22.90;3.33;;;11.90;77.80;;;;;;5101092;28;20481;-79
2022/02/17 05:05:59;;;;;;;16.73;3.05;;;11.90;77.90;;;;;;5118202;28;20028;-79
2022/02/17 05:08:25;;;;;;;23.73;3.42;;;11.90;77.80;;;;;;5117782;28;20055;-79
2022/02/17 05:10:50;;;;;;;22.67;3.45;;;11.90;78.10;;;;;;5100736;28;20025;-79
2022/02/17 05:13:16;;;;;;;20.40;4.20;;;11.90;78.10;;;;;;5095405;28;20027;-79
2022/02/17 05:15:43;;;;;;;10.80;3.05;;;11.80;77.60;;;;;;5097753;28;20035;-79
2022/02/17 05:18:10;;;;;;;25.65;5.43;;;11.80;77.60;;;;;;5099496;28;20509;-79
2022/02/17 05:20:36;;;;;;;19.75;3.25;;;11.70;77.50;;;;;;5081370;28;20117;-77
2022/02/17 05:23:01;;;;;;;22.50;3.75;;;11.70;78.00;;;;;;5081395;28;20020;-77
2022/02/17 05:25:27;;;;;;;21.38;4.13;;;11.70;78.20;;;;;;5099319;28;20036;-79
2022/02/17 05:27:53;;;;;;;20.00;3.03;;;11.70;78.40;;;;;;5099457;28;20048;-79
2022/02/17 05:30:19;;;;;;;17.40;2.72;;;11.70;78.10;;;;;;5099188;28;20036;-79
2022/02/17 05:32:46;;;;;;;25.30;4.07;;;11.60;78.20;;;;;;5098112;28;20418;-79
2022/02/17 05:35:12;;;;;;;22.38;3.63;;;11.60;78.10;;;;;;5113974;28;20023;-79
2022/02/17 05:37:39;;;;;;;26.40;4.28;;;11.50;78.10;;;;;;5119513;28;20494;-79
2022/02/17 05:40:08;;;;;;;18.38;3.60;;;11.50;77.90;;;;;;5117761;28;20031;-79
2022/02/17 05:42:34;;;;;;;24.70;4.35;;;11.50;78.10;;;;;;5099214;28;20413;-79
2022/02/17 05:45:00;;;;;;;26.70;4.45;;;11.40;77.60;;;;;;5098880;28;20470;-79
2022/02/17 05:47:26;;;;;;;24.23;5.13;;;11.50;78.10;;;;;;5084317;28;20028;-79
2022/02/17 05:49:52;;;;;;;22.98;3.83;;;11.30;77.80;;;;;;5119313;28;20027;-79
2022/02/17 05:52:17;;;;;;;28.13;4.63;;;11.30;78.20;;;;;;5117191;28;20059;-79
2022/02/17 05:54:43;;;;;;;23.00;3.80;;;11.30;78.30;;;;;;5098845;28;20406;-79
2022/02/17 05:57:10;;;;;;;22.05;3.78;;;11.30;78.40;;;;;;5098959;28;20024;-78
2022/02/17 05:59:38;;;;;;;21.50;3.13;;;11.30;78.60;;;;;;5109702;28;20062;-81
2022/02/17 06:02:04;;;;;;;18.40;3.65;;;11.30;78.80;;;;;;5106960;27;20024;-81
2022/02/17 06:04:30;;;;;;;21.95;4.85;;;11.20;78.30;;;;;;5108120;27;20035;-80
2022/02/17 06:06:56;;;;;;;14.38;3.97;;;11.20;78.70;;;;;;5099672;28;20023;-81
2022/02/17 06:09:21;;;;;;;19.75;3.60;;;11.20;78.40;;;;;;5092153;28;20023;-81
2022/02/17 06:11:47;;;;;;;26.67;3.40;;;11.20;78.30;;;;;;5099502;27;20035;-82
2022/02/17 06:14:13;;;;;;;18.33;4.10;;;11.10;78.40;;;;;;5107025;27;20113;-81
2022/02/17 06:16:39;;;;;;;18.42;4.82;;;11.10;78.70;;;;;;5107175;27;20028;-81
2022/02/17 06:19:04;;;;;;;18.58;4.15;;;11.10;78.40;;;;;;5110919;28;20024;-81
2022/02/17 06:21:30;;;;;;;20.55;3.58;;;11.00;78.60;;;;;;5113242;27;20028;-79
2022/02/17 06:23:56;;;;;;;22.23;4.10;;;11.00;78.70;;;;;;5119114;27;20052;-80
2022/02/17 06:26:21;;;;;;;22.88;4.43;;;11.00;78.60;;;;;;5096128;28;20150;-82
2022/02/17 06:28:47;;;;;;;16.83;3.50;;;11.00;78.70;;;;;;5111350;27;20032;-79
2022/02/17 06:31:13;;;;;;;21.08;3.72;;;10.90;78.80;;;;;;5116695;28;20429;-79
2022/02/17 06:33:38;;;;;;;17.98;3.28;;;10.90;78.50;;;;;;5116005;28;20553;-79
2022/02/17 06:36:04;;;;;;;21.80;3.45;;;10.90;78.40;;;;;;5096116;28;20039;-79
2022/02/17 06:38:31;;;;;;;24.17;4.35;;;10.90;78.30;;;;;;5091062;28;20115;-78
2022/02/17 06:40:57;;;;;;;21.00;3.90;;;10.80;78.10;;;;;;5079896;28;20020;-79
2022/02/17 06:43:24;;;;;;;22.20;4.95;;;10.80;79.00;;;;;;5079872;28;20031;-78
2022/02/17 06:45:50;;;;;;;13.70;3.08;;;10.80;78.10;;;;;;5079872;28;20091;-79
2022/02/17 06:48:16;;;;;;;24.02;4.65;;;10.80;78.60;;;;;;5097779;28;20505;-79
2022/02/17 06:50:42;;;;;;;27.05;5.07;;;10.80;78.90;;;;;;5079534;28;20042;-79
2022/02/17 06:53:08;;;;;;;30.52;5.13;;;10.80;78.80;;;;;;5079581;28;20020;-79
2022/02/17 06:55:34;;;;;;;21.33;3.00;;;10.70;78.80;;;;;;5079529;28;20028;-79
2022/02/17 06:58:00;;;;;;;24.20;4.28;;;10.70;78.70;;;;;;5100804;28;20040;-79
2022/02/17 07:00:26;;;;;;;25.42;4.32;;;10.70;79.00;;;;;;5098070;28;20778;-76
2022/02/17 07:02:53;;;;;;;28.48;5.30;;;10.70;78.80;;;;;;5108043;28;20046;-78
2022/02/17 07:05:25;;;;;;;18.92;3.90;;;10.70;79.30;;;;;;5132192;27;20405;-76
2022/02/17 07:07:51;;;;;;;23.45;4.90;;;10.60;79.10;;;;;;5138481;27;20101;-76
2022/02/17 07:13:02;;;;;;;23.45;4.40;;;10.60;79.20;;;;;;5097521;28;20550;-76
2022/02/17 07:15:30;;;;;;;33.10;4.63;;;10.70;79.20;;;;;;5097402;28;20115;-77
2022/02/17 07:17:56;;;;;;;25.30;4.65;;;10.70;78.80;;;;;;5097348;28;20085;-76
2022/02/17 07:20:22;;;;;;;27.08;4.20;;;10.70;79.20;;;;;;5103798;28;20023;-76
2022/02/17 07:25:21;;;;;;;25.92;5.10;;;10.60;79.50;;;;;;5081056;27;1343255;-76
2022/02/17 07:27:47;;;;;;;32.83;5.70;;;10.50;80.00;;;;;;5121197;28;20073;-77
2022/02/17 07:30:12;;;;;;;28.63;5.22;;;10.60;80.20;;;;;;5122605;28;20023;-77
2022/02/17 07:32:42;;;;;;;36.33;5.63;;;10.60;80.00;;;;;;5121513;28;20024;-79
2022/02/17 07:35:08;;;;;;;22.95;4.80;;;10.60;79.70;;;;;;5118292;28;20062;-78
2022/02/17 07:37:34;;;;;;;30.60;4.38;;;10.80;79.50;;;;;;5120399;28;20023;-77
2022/02/17 07:40:00;;;;;;;26.10;4.20;;;10.90;79.40;;;;;;5122143;27;20031;-78
2022/02/17 07:42:26;;;;;;;36.53;6.13;;;11.10;79.20;;;;;;5124293;28;20028;-77
2022/02/17 07:44:56;;;;;;;27.05;6.07;;;11.20;78.80;;;;;;5130283;28;20499;-78
2022/02/17 07:47:23;;;;;;;26.88;4.82;;;11.30;77.60;;;;;;5107036;28;20508;-77
2022/02/17 07:49:49;;;;;;;26.65;5.88;;;11.50;78.10;;;;;;5112458;28;20035;-77
2022/02/17 07:52:15;;;;;;;35.00;5.22;;;11.50;77.70;;;;;;5112859;28;20043;-77
2022/02/17 07:54:41;;;;;;;24.80;5.13;;;11.60;77.50;;;;;;5114983;28;20547;-77
2022/02/17 07:57:07;;;;;;;35.10;5.07;;;11.70;77.60;;;;;;5133362;27;20031;-77
2022/02/17 07:59:33;;;;;;;28.65;4.63;;;11.60;77.30;;;;;;5133121;28;20028;-78
2022/02/17 08:01:58;;;;;;;28.20;6.32;;;11.80;77.40;;;;;;5129906;28;20027;-77
2022/02/17 08:04:24;;;;;;;32.60;4.70;;;11.70;77.20;;;;;;5101928;28;20035;-77
2022/02/17 08:06:50;;;;;;;29.10;5.30;;;11.80;77.10;;;;;;5104604;28;20085;-77
2022/02/17 08:09:15;;;;;;;26.58;6.03;;;11.80;76.90;;;;;;5108901;28;20098;-77
2022/02/17 08:11:41;;;;;;;30.45;4.55;;;11.80;76.50;;;;;;5102704;28;20020;-78
2022/02/17 08:14:07;;;;;;;19.95;4.43;;;11.90;76.70;;;;;;5107193;28;20024;-77
2022/02/17 08:16:33;;;;;;;32.80;4.80;;;11.90;76.60;;;;;;5117043;28;20490;-78
2022/02/17 08:18:59;;;;;;;30.70;6.60;;;12.20;76.40;;;;;;5111153;28;20024;-77
2022/02/17 08:21:25;;;;;;;22.75;5.90;;;12.60;75.30;;;;;;5118771;28;20134;-81
2022/02/17 08:23:51;;;;;;;36.15;5.65;;;13.00;74.30;;;;;;5105835;28;20051;-81
2022/02/17 08:26:17;;;;;;;27.73;5.63;;;13.30;73.60;;;;;;5111788;28;20560;-81
2022/02/17 08:28:43;;;;;;;26.17;5.25;;;13.60;71.70;;;;;;5111952;28;20028;-81
2022/02/17 08:31:09;;;;;;;28.75;6.55;;;13.80;70.60;;;;;;5110481;28;20035;-81
2022/02/17 08:33:34;;;;;;;28.45;5.30;;;14.10;70.90;;;;;;5091712;28;20108;-81
2022/02/17 08:36:00;;;;;;;38.08;6.55;;;14.20;69.90;;;;;;5081748;28;20040;-81
2022/02/17 08:38:31;;;;;;;31.75;6.35;;;14.30;68.90;;;;;;5077918;28;20033;-81
2022/02/17 08:40:58;;;;;;;35.22;6.70;;;14.20;69.60;;;;;;5076677;28;20032;-81
2022/02/17 08:43:24;;;;;;;30.25;5.40;;;14.20;69.60;;;;;;5081824;28;20039;-81
2022/02/17 08:45:50;;;;;;;33.33;6.70;;;14.10;69.70;;;;;;5098239;28;20024;-81
2022/02/17 08:48:16;;;;;;;33.55;5.90;;;14.20;69.70;;;;;;5098252;28;20405;-81
2022/02/17 08:50:44;;;;;;;27.13;5.40;;;14.30;69.70;;;;;;5089321;28;20025;-81
2022/02/17 08:53:10;;;;;;;39.28;6.43;;;14.30;69.70;;;;;;5077968;28;20144;-81
2022/02/17 08:55:36;;;;;;;37.70;6.10;;;14.30;69.20;;;;;;5077663;28;20021;-81
2022/02/17 08:58:02;;;;;;;28.73;5.80;;;14.40;68.60;;;;;;5077922;28;20031;-81
2022/02/17 09:00:28;;;;;;;28.40;5.53;;;14.40;69.70;;;;;;5093664;28;20035;-81
2022/02/17 09:02:54;;;;;;;27.48;5.82;;;14.30;69.40;;;;;;5097914;28;20058;-81
2022/02/17 09:05:20;;;;;;;30.95;5.70;;;14.20;70.00;;;;;;5083590;28;20033;-81
2022/02/17 09:07:46;;;;;;;41.03;6.15;;;14.00;70.40;;;;;;5076210;28;20055;-81
2022/02/17 09:10:11;;;;;;;31.60;6.20;;;14.00;70.40;;;;;;5091105;28;20371;-82
2022/02/17 09:12:38;;;;;;;43.42;8.55;;;14.10;70.60;;;;;;5097749;28;20028;-81
2022/02/17 09:15:06;;;;;;;30.33;6.07;;;14.00;71.10;;;;;;5080861;28;20498;-81
2022/02/17 09:17:31;;;;;;;32.97;7.07;;;14.10;71.00;;;;;;5082587;28;20033;-81
2022/02/17 09:19:58;;;;;;;29.30;6.20;;;14.10;71.20;;;;;;5097216;28;20035;-81
2022/02/17 09:22:23;;;;;;;31.85;6.03;;;14.20;71.40;;;;;;5084118;28;20041;-81
2022/02/17 09:24:49;;;;;;;32.60;6.20;;;14.20;71.10;;;;;;5077083;28;20097;-81
2022/02/17 09:27:15;;;;;;;31.02;6.28;;;14.20;71.00;;;;;;5077295;28;20048;-81
2022/02/17 09:29:42;;;;;;;31.63;6.13;;;14.10;71.10;;;;;;5076988;28;20016;-81
2022/02/17 09:32:09;;;;;;;35.08;6.22;;;14.10;70.70;;;;;;5077121;28;20050;-81
2022/02/17 09:34:37;;;;;;;39.00;6.50;;;14.30;71.20;;;;;;5077066;28;20042;-81
2022/02/17 09:37:03;;;;;;;30.85;6.88;;;14.40;70.90;;;;;;5076792;28;20116;-81
2022/02/17 09:39:29;;;;;;;34.97;6.55;;;14.50;70.20;;;;;;5075771;28;20059;-81
2022/02/17 09:41:55;;;;;;;32.08;5.30;;;14.70;70.00;;;;;;5076863;28;20457;-81
2022/02/17 09:44:22;;;;;;;37.85;7.90;;;15.00;69.20;;;;;;5076678;28;20037;-81
2022/02/17 09:46:48;;;;;;;31.70;7.05;;;15.60;67.40;;;;;;5075774;28;20029;-81
2022/02/17 09:49:15;;;;;;;42.30;8.38;;;16.20;66.10;;;;;;5076702;28;20024;-82
2022/02/17 09:51:42;;;;;;;30.15;7.35;;;17.20;64.00;;;;;;5076723;28;20086;-81
2022/02/17 09:54:08;;;;;;;33.38;8.63;;;17.30;61.40;;;;;;5087729;28;20044;-81
2022/02/17 09:56:36;;;;;;;26.05;6.28;;;17.90;60.00;;;;;;5076516;28;20060;-81
2022/02/17 09:59:02;;;;;;;29.55;6.60;;;18.30;59.00;;;;;;5085816;28;20074;-81
2022/02/17 10:01:28;;;;;;;21.63;6.35;;;18.60;57.50;;;;;;5075193;28;20033;-81
2022/02/17 10:04:15;;;;;;;35.67;8.13;;;18.80;55.90;;;;;;5089320;28;20478;-81
2022/02/17 10:06:51;;;;;;;27.67;6.47;;;19.10;57.10;;;;;;5090507;28;20429;-82
2022/02/17 10:09:19;;;;;;;31.33;7.60;;;19.20;54.30;;;;;;5076326;28;20035;-82
2022/02/17 10:11:47;;;;;;;29.15;7.25;;;18.90;55.40;;;;;;5086213;28;20032;-82
2022/02/17 10:14:17;;;;;;;30.10;6.88;;;18.90;54.30;;;;;;5089833;28;20028;-82
2022/02/17 10:17:03;;;;;;;29.88;7.38;;;19.30;54.80;;;;;;5076283;28;20037;-82
2022/02/17 10:19:41;;;;;;;29.92;7.65;;;19.10;53.20;;;;;;5076061;28;20025;-82
2022/02/17 10:22:10;;;;;;;27.67;5.07;;;18.70;55.80;;;;;;5076061;28;20032;-82
2022/02/17 10:24:47;;;;;;;29.83;5.97;;;18.10;54.10;;;;;;5074622;28;20048;-82
2022/02/17 10:27:18;;;;;;;33.80;7.13;;;18.30;55.90;;;;;;5091828;28;20043;-82
2022/02/17 10:30:13;;;;;;;29.98;6.13;;;17.90;56.00;;;;;;5096334;28;20016;-82
2022/02/17 10:32:56;;;;;;;29.45;6.40;;;17.40;57.20;;;;;;5086773;28;20025;-81
2022/02/17 10:35:23;;;;;;;31.38;5.13;;;17.00;58.00;;;;;;5076018;28;20028;-81
2022/02/17 10:37:54;;;;;;;29.23;5.75;;;16.80;58.70;;;;;;5075835;28;20016;-81
2022/02/17 10:40:25;;;;;;;33.42;6.38;;;16.30;59.00;;;;;;5075606;28;20024;-81
2022/02/17 10:43:15;;;;;;;30.05;5.53;;;16.20;58.90;;;;;;5075783;28;20028;-81
2022/02/17 10:45:43;;;;;;;25.85;4.85;;;16.20;60.40;;;;;;5075744;28;20021;-81
2022/02/17 10:48:20;;;;;;;30.40;4.97;;;16.00;61.50;;;;;;5075874;28;20048;-81
2022/02/17 10:51:13;;;;;;;30.88;5.38;;;15.90;61.00;;;;;;5074275;28;20040;-81
2022/02/17 10:53:43;;;;;;;24.00;5.28;;;15.90;62.00;;;;;;5075595;28;20502;-81
2022/02/17 10:56:14;;;;;;;32.42;5.07;;;16.00;61.50;;;;;;5084758;28;20525;-81
2022/02/17 10:58:48;;;;;;;28.92;5.32;;;16.00;62.20;;;;;;5095847;28;20039;-81
2022/02/17 11:01:16;;;;;;;24.70;4.85;;;16.00;61.50;;;;;;5095984;28;20021;-81
2022/02/17 11:03:42;;;;;;;27.92;5.82;;;16.10;61.80;;;;;;5081761;28;20020;-81
2022/02/17 11:06:13;;;;;;;28.33;4.80;;;16.10;61.00;;;;;;5095883;28;21511;-81
2022/02/17 11:08:40;;;;;;;24.75;5.32;;;16.10;60.20;;;;;;5095338;28;20059;-81
2022/02/17 11:11:07;;;;;;;29.27;4.95;;;15.90;60.20;;;;;;5089801;28;20036;-81
2022/02/17 11:13:33;;;;;;;22.98;5.13;;;15.90;60.20;;;;;;5075350;28;20020;-81
2022/02/17 11:16:02;;;;;;;27.67;4.95;;;15.90;61.50;;;;;;5075234;28;20028;-81
2022/02/17 11:18:29;;;;;;;28.67;4.35;;;16.00;61.00;;;;;;5075409;28;20028;-81
2022/02/17 11:20:56;;;;;;;22.13;4.20;;;16.00;61.50;;;;;;5074433;28;20033;-81
2022/02/17 11:23:32;;;;;;;35.20;4.97;;;16.00;60.80;;;;;;5073503;28;20915;-81
2022/02/17 11:25:58;;;;;;;23.58;5.50;;;15.90;60.00;;;;;;5075359;28;20027;-81
2022/02/17 11:28:35;;;;;;;23.48;5.85;;;16.00;61.10;;;;;;5075229;28;20029;-81
2022/02/17 11:31:03;;;;;;;20.35;4.55;;;15.80;59.50;;;;;;5073902;28;20025;-81
2022/02/17 11:33:37;;;;;;;21.90;4.47;;;15.90;61.10;;;;;;5080514;28;20032;-81
2022/02/17 11:36:19;;;;;;;23.83;4.82;;;15.90;60.40;;;;;;5075259;28;20017;-79
2022/02/17 11:38:52;;;;;;;21.90;4.50;;;15.90;60.40;;;;;;5075040;28;20479;-79
2022/02/17 11:41:20;;;;;;;32.95;5.03;;;16.00;59.50;;;;;;5075154;28;20027;-79
2022/02/17 11:43:52;;;;;;;23.30;4.43;;;16.10;59.90;;;;;;5074954;28;20059;-79
2022/02/17 11:46:40;;;;;;;15.55;3.67;;;16.20;59.80;;;;;;5074960;28;20031;-79
2022/02/17 11:49:09;;;;;;;23.40;4.15;;;16.10;60.00;;;;;;5073673;28;20082;-79
2022/02/17 11:51:35;;;;;;;26.53;5.87;;;16.10;59.60;;;;;;5075009;28;20066;-78
2022/02/17 11:54:16;;;;;;;18.52;4.53;;;16.30;59.60;;;;;;5091240;28;20281;-81
2022/02/17 11:56:48;;;;;;;29.85;5.20;;;16.20;59.20;;;;;;5103879;28;20032;-79
2022/02/17 11:59:26;;;;;;;17.23;3.30;;;16.30;59.30;;;;;;5107960;28;20019;-81
2022/02/17 12:01:53;;;;;;;22.40;4.13;;;16.20;58.40;;;;;;5086254;28;20032;-79
2022/02/17 12:04:30;;;;;;;14.52;3.40;;;16.20;58.00;;;;;;5094772;28;20486;-79
2022/02/17 12:07:07;;;;;;;23.50;5.03;;;16.30;57.60;;;;;;5094378;28;20031;-78
2022/02/17 12:09:36;;;;;;;20.83;3.90;;;16.30;57.70;;;;;;5074678;28;20101;-79
2022/02/17 12:12:14;;;;;;;29.15;4.47;;;16.30;58.70;;;;;;5091838;28;20027;-79
2022/02/17 12:14:51;;;;;;;20.55;4.15;;;16.20;58.30;;;;;;5098642;28;20028;-79
2022/02/17 12:17:28;;;;;;;22.80;4.30;;;16.30;58.10;;;;;;5091592;28;20017;-79
2022/02/17 12:20:07;;;;;;;23.45;4.45;;;16.40;58.70;;;;;;5078571;28;20044;-78
2022/02/17 12:22:33;;;;;;;18.60;3.47;;;16.60;56.70;;;;;;5094153;28;20028;-78
2022/02/17 12:25:21;;;;;;;19.95;4.22;;;16.70;56.80;;;;;;5098578;28;20044;-79
2022/02/17 12:27:50;;;;;;;17.60;3.70;;;16.80;56.60;;;;;;5096208;28;20090;-79
2022/02/17 12:30:42;;;;;;;12.85;3.55;;;16.80;55.90;;;;;;5078465;28;20746;-79
2022/02/17 12:33:13;;;;;;;16.88;3.92;;;16.80;55.70;;;;;;5078475;28;20113;-78
2022/02/17 12:35:47;;;;;;;15.38;3.63;;;16.90;54.30;;;;;;5098621;28;20421;-78
2022/02/17 12:38:15;;;;;;;25.80;4.22;;;16.90;54.80;;;;;;5094735;28;20050;-79
2022/02/17 12:40:43;;;;;;;22.13;4.57;;;17.10;54.40;;;;;;5078083;28;20016;-79
2022/02/17 12:43:09;;;;;;;19.92;5.60;;;17.00;55.50;;;;;;5078018;28;20074;-78
2022/02/17 12:45:36;;;;;;;16.17;3.90;;;17.10;55.10;;;;;;5078116;28;20387;-80
2022/02/17 12:48:03;;;;;;;19.00;3.85;;;17.00;55.00;;;;;;5078008;28;20059;-80